Time;durP1;ratioP1;P1;durP2;ratioP2;P2;SDS_P1;SDS_P2;PMS_P1;PMS_P2;Temp;Humidity;BMP_temperature;BMP_pressure;BME280_temperature;BME280_humidity;BME280_pressure;Samples;Min_cycle;Max_cycle;Signal;HPM_P1;HPM_P2
2021/01/18 00:00:02;;;;;;;;;;;;;;;;;;5094391;28;19940;-61
2021/01/18 00:02:28;;;;;;;;;;;;;;;;;;5094207;28;20439;-61
2021/01/18 00:04:54;;;;;;;;;;;;;;;;;;5094367;28;19944;-61
2021/01/18 00:07:20;;;;;;;;;;;;;;;;;;5094425;28;19919;-60
2021/01/18 00:09:46;;;;;;;;;;;;;;;;;;5094206;28;19921;-61
2021/01/18 00:12:12;;;;;;;;;;;;;;;;;;5094372;28;19944;-61
2021/01/18 00:14:38;;;;;;;;;;;;;;;;;;5094092;28;19958;-61
2021/01/18 00:17:04;;;;;;;;;;;;;;;;;;5094497;28;20314;-62
2021/01/18 00:19:30;;;;;;;;;;;;;;;;;;5094224;28;19908;-61
2021/01/18 00:21:56;;;;;;;;;;;;;;;;;;5093612;28;19919;-61
2021/01/18 00:24:22;;;;;;;;;;;;;;;;;;5093883;28;19960;-61
2021/01/18 00:26:48;;;;;;;;;;;;;;;;;;5094078;28;19962;-60
2021/01/18 00:29:14;;;;;;;;;;;;;;;;;;5093865;28;20003;-61
2021/01/18 00:31:40;;;;;;;;;;;;;;;;;;5094263;28;19946;-61
2021/01/18 00:34:06;;;;;;;;;;;;;;;;;;5093894;28;19912;-61
2021/01/18 00:36:32;;;;;;;;;;;;;;;;;;5093878;28;19946;-61
2021/01/18 00:38:58;;;;;;;;;;;;;;;;;;5094130;28;19922;-61
2021/01/18 00:41:24;;;;;;;;;;;;;;;;;;5093793;28;19937;-61
2021/01/18 00:43:49;;;;;;;;;;;;;;;;;;5093673;28;19951;-61
2021/01/18 00:46:15;;;;;;;;;;;;;;;;;;5093853;28;19953;-61
2021/01/18 00:48:41;;;;;;;;;;;;;;;;;;5093756;28;20380;-61
2021/01/18 00:51:07;;;;;;;;;;;;;;;;;;5093710;28;20404;-61
2021/01/18 00:53:33;;;;;;;;;;;;;;;;;;5093719;28;19949;-61
2021/01/18 00:55:59;;;;;;;;;;;;;;;;;;5093451;28;19923;-61
2021/01/18 00:58:25;;;;;;;;;;;;;;;;;;5093668;28;19925;-61
2021/01/18 01:00:51;;;;;;;;;;;;;;;;;;5093777;28;19919;-62
2021/01/18 01:03:17;;;;;;;;;;;;;;;;;;5093468;28;20481;-61
2021/01/18 01:05:43;;;;;;;;;;;;;;;;;;5093688;28;20237;-61
2021/01/18 01:08:09;;;;;;;;;;;;;;;;;;5093696;28;19918;-61
2021/01/18 01:10:35;;;;;;;;;;;;;;;;;;5093417;28;19938;-61
2021/01/18 01:13:01;;;;;;;;;;;;;;;;;;5093878;28;19908;-61
2021/01/18 01:15:27;;;;;;;;;;;;;;;;;;5093505;28;19919;-61
2021/01/18 01:17:53;;;;;;;;;;;;;;;;;;5093626;28;19944;-61
2021/01/18 01:20:19;;;;;;;;;;;;;;;;;;5094118;22;19959;-59
2021/01/18 01:22:45;;;;;;;;;;;;;;;;;;5055286;28;19945;-59
2021/01/18 01:25:11;;;;;;;;;;;;;;;;;;5065188;28;19920;-60
2021/01/18 01:27:37;;;;;;;;;;;;;;;;;;5035835;28;19929;-60
2021/01/18 01:30:03;;;;;;;;;;;;;;;;;;5035466;28;20018;-60
2021/01/18 01:32:29;;;;;;;;;;;;;;;;;;5053141;28;20453;-60
2021/01/18 01:34:55;;;;;;;;;;;;;;;;;;5055674;28;19920;-61
2021/01/18 01:37:21;;;;;;;;;;;;;;;;;;5057241;28;20376;-60
2021/01/18 01:39:47;;;;;;;;;;;;;;;;;;5056921;28;19930;-60
2021/01/18 01:42:13;;;;;;;;;;;;;;;;;;5056970;28;19945;-60
2021/01/18 01:44:39;;;;;;;;;;;;;;;;;;5056735;28;20328;-60
2021/01/18 01:47:05;;;;;;;;;;;;;;;;;;5056735;28;19924;-60
2021/01/18 01:49:31;;;;;;;;;;;;;;;;;;5057070;28;19909;-60
2021/01/18 01:51:57;;;;;;;;;;;;;;;;;;5056683;28;20308;-60
2021/01/18 01:54:23;;;;;;;;;;;;;;;;;;5038777;28;19916;-59
2021/01/18 01:56:49;;;;;;;;;;;;;;;;;;5069649;28;19927;-60
2021/01/18 01:59:15;;;;;;;;;;;;;;;;;;5076775;28;20303;-60
2021/01/18 02:01:41;;;;;;;;;;;;;;;;;;5076412;28;19919;-60
2021/01/18 02:04:06;;;;;;;;;;;;;;;;;;5076521;28;20387;-60
2021/01/18 02:06:32;;;;;;;;;;;;;;;;;;5076253;28;19919;-60
2021/01/18 02:08:58;;;;;;;;;;;;;;;;;;5076521;28;19952;-60
2021/01/18 02:11:24;;;;;;;;;;;;;;;;;;5076187;28;19916;-60
2021/01/18 02:13:50;;;;;;;;;;;;;;;;;;5076672;28;19908;-60
2021/01/18 02:16:16;;;;;;;;;;;;;;;;;;5058258;28;20384;-60
2021/01/18 02:18:42;;;;;;;;;;;;;;;;;;5076469;28;19986;-60
2021/01/18 02:21:08;;;;;;;;;;;;;;;;;;5075858;28;19961;-60
2021/01/18 02:23:35;;;;;;;;;;;;;;;;;;5076103;28;20002;-60
2021/01/18 02:26:01;;;;;;;;;;;;;;;;;;5076119;28;19967;-61
2021/01/18 02:28:27;;;;;;;;;;;;;;;;;;5075947;28;19908;-61
2021/01/18 02:30:53;;;;;;;;;;;;;;;;;;5076306;28;20369;-60
2021/01/18 02:33:19;;;;;;;;;;;;;;;;;;5075929;28;19908;-60
2021/01/18 02:35:45;;;;;;;;;;;;;;;;;;5076006;28;20485;-60
2021/01/18 02:38:11;;;;;;;;;;;;;;;;;;5076109;28;19954;-60
2021/01/18 02:40:37;;;;;;;;;;;;;;;;;;5075831;28;20382;-61
2021/01/18 02:43:03;;;;;;;;;;;;;;;;;;5075605;28;20003;-60
2021/01/18 02:45:29;;;;;;;;;;;;;;;;;;5075211;28;19923;-60
2021/01/18 02:47:55;;;;;;;;;;;;;;;;;;5075651;28;20301;-60
2021/01/18 02:50:21;;;;;;;;;;;;;;;;;;5075761;28;19963;-60
2021/01/18 02:52:47;;;;;;;;;;;;;;;;;;5075486;28;19933;-61
2021/01/18 02:55:13;;;;;;;;;;;;;;;;;;5075602;28;19930;-60
2021/01/18 02:57:39;;;;;;;;;;;;;;;;;;5075598;28;19921;-59
2021/01/18 03:00:06;;;;;;;;;;;;;;;;;;5056102;28;19986;-60
2021/01/18 03:02:32;;;;;;;;;;;;;;;;;;5055470;28;20046;-60
2021/01/18 03:04:58;;;;;;;;;;;;;;;;;;5055792;28;20020;-60
2021/01/18 03:07:24;;;;;;;;;;;;;;;;;;5055563;28;19920;-60
2021/01/18 03:09:49;;;;;;;;;;;;;;;;;;5055282;28;20404;-59
2021/01/18 03:12:15;;;;;;;;;;;;;;;;;;5055160;28;19991;-60
2021/01/18 03:14:41;;;;;;;;;;;;;;;;;;5055245;28;19950;-60
2021/01/18 03:17:07;;;;;;;;;;;;;;;;;;5055066;28;19919;-60
2021/01/18 03:19:33;;;;;;;;;;;;;;;;;;5054854;28;19960;-60
2021/01/18 03:21:59;;;;;;;;;;;;;;;;;;5037112;28;19980;-60
2021/01/18 03:24:25;;;;;;;;;;;;;;;;;;5054842;28;19923;-61
2021/01/18 03:26:51;;;;;;;;;;;;;;;;;;5055427;28;20412;-60
2021/01/18 03:29:17;;;;;;;;;;;;;;;;;;5036991;28;19995;-60
2021/01/18 03:31:43;;;;;;;;;;;;;;;;;;5055087;28;19962;-60
2021/01/18 03:34:09;;;;;;;;;;;;;;;;;;5054751;28;20374;-61
2021/01/18 03:36:35;;;;;;;;;;;;;;;;;;5054676;28;19921;-61
2021/01/18 03:39:01;;;;;;;;;;;;;;;;;;5054708;28;19909;-60
2021/01/18 03:41:27;;;;;;;;;;;;;;;;;;5054769;28;19909;-61
2021/01/18 03:43:53;;;;;;;;;;;;;;;;;;5054741;28;19961;-60
2021/01/18 03:46:19;;;;;;;;;;;;;;;;;;5054507;28;20296;-60
2021/01/18 03:48:45;;;;;;;;;;;;;;;;;;5054369;28;19923;-61
2021/01/18 03:51:11;;;;;;;;;;;;;;;;;;5036695;28;19947;-60
2021/01/18 03:53:37;;;;;;;;;;;;;;;;;;5054419;28;20377;-60
2021/01/18 03:56:03;;;;;;;;;;;;;;;;;;5053773;28;19926;-60
2021/01/18 03:58:29;;;;;;;;;;;;;;;;;;5053677;28;20006;-61
2021/01/18 04:00:55;;;;;;;;;;;;;;;;;;5054334;28;19926;-61
2021/01/18 04:03:21;;;;;;;;;;;;;;;;;;5054023;28;19945;-69
2021/01/18 04:05:47;;;;;;;;;;;;;;;;;;5054314;28;20037;-61
2021/01/18 04:08:13;;;;;;;;;;;;;;;;;;5053971;28;19930;-60
2021/01/18 04:10:39;;;;;;;;;;;;;;;;;;5054168;28;20430;-60
2021/01/18 04:13:05;;;;;;;;;;;;;;;;;;5054180;28;19919;-60
2021/01/18 04:15:31;;;;;;;;;;;;;;;;;;5054067;28;19909;-61
2021/01/18 04:17:57;;;;;;;;;;;;;;;;;;5054063;28;19944;-60
2021/01/18 04:20:22;;;;;;;;;;;;;;;;;;5053735;28;19959;-60
2021/01/18 04:22:48;;;;;;;;;;;;;;;;;;5053744;28;19913;-60
2021/01/18 04:25:14;;;;;;;;;;;;;;;;;;5053976;28;19913;-60
2021/01/18 04:27:40;;;;;;;;;;;;;;;;;;5053974;28;19930;-60
2021/01/18 04:30:06;;;;;;;;;;;;;;;;;;5053896;28;20377;-60
2021/01/18 04:32:32;;;;;;;;;;;;;;;;;;5053676;28;19925;-60
2021/01/18 04:34:58;;;;;;;;;;;;;;;;;;5054023;28;19928;-60
2021/01/18 04:37:24;;;;;;;;;;;;;;;;;;5054013;28;19915;-60
2021/01/18 04:39:50;;;;;;;;;;;;;;;;;;5053709;28;20275;-61
2021/01/18 04:42:16;;;;;;;;;;;;;;;;;;5053604;28;20033;-60
2021/01/18 04:44:42;;;;;;;;;;;;;;;;;;5053996;28;19954;-60
2021/01/18 04:47:08;;;;;;;;;;;;;;;;;;5054059;28;20373;-60
2021/01/18 04:49:34;;;;;;;;;;;;;;;;;;5035697;28;19925;-60
2021/01/18 04:52:00;;;;;;;;;;;;;;;;;;5053590;28;19944;-60
2021/01/18 04:54:26;;;;;;;;;;;;;;;;;;5053413;28;19948;-60
2021/01/18 04:56:52;;;;;;;;;;;;;;;;;;5053488;28;19960;-60
2021/01/18 04:59:18;;;;;;;;;;;;;;;;;;5053803;28;19927;-60
2021/01/18 05:01:44;;;;;;;;;;;;;;;;;;5053515;28;19999;-60
2021/01/18 05:04:10;;;;;;;;;;;;;;;;;;5053494;28;20327;-60
2021/01/18 05:06:36;;;;;;;;;;;;;;;;;;5053393;28;20022;-60
2021/01/18 05:09:02;;;;;;;;;;;;;;;;;;5056398;28;19955;-59
2021/01/18 05:11:28;;;;;;;;;;;;;;;;;;5057731;28;20412;-60
2021/01/18 05:13:53;;;;;;;;;;;;;;;;;;5057494;28;19979;-60
2021/01/18 05:16:19;;;;;;;;;;;;;;;;;;5057281;28;19949;-60
2021/01/18 05:18:45;;;;;;;;;;;;;;;;;;5057375;28;19978;-60
2021/01/18 05:21:11;;;;;;;;;;;;;;;;;;5056946;28;19921;-60
2021/01/18 05:23:37;;;;;;;;;;;;;;;;;;5039296;28;19966;-60
2021/01/18 05:26:03;;;;;;;;;;;;;;;;;;5057190;28;20453;-59
2021/01/18 05:28:29;;;;;;;;;;;;;;;;;;5039367;28;20277;-59
2021/01/18 05:30:55;;;;;;;;;;;;;;;;;;5057061;28;20012;-59
2021/01/18 05:33:21;;;;;;;;;;;;;;;;;;5057043;28;19921;-59
2021/01/18 05:35:47;;;;;;;;;;;;;;;;;;5057257;28;20358;-60
2021/01/18 05:38:13;;;;;;;;;;;;;;;;;;5057118;28;19920;-60
2021/01/18 05:40:39;;;;;;;;;;;;;;;;;;5057098;28;20408;-60
2021/01/18 05:43:05;;;;;;;;;;;;;;;;;;5057339;28;19950;-60
2021/01/18 05:45:31;;;;;;;;;;;;;;;;;;5056747;28;19975;-59
2021/01/18 05:47:57;;;;;;;;;;;;;;;;;;5057058;28;19925;-59
2021/01/18 05:50:23;;;;;;;;;;;;;;;;;;5056742;28;19950;-59
2021/01/18 05:52:49;;;;;;;;;;;;;;;;;;5056030;28;20019;-59
2021/01/18 05:55:15;;;;;;;;;;;;;;;;;;5067512;28;20404;-59
2021/01/18 05:57:41;;;;;;;;;;;;;;;;;;5074086;28;19929;-58
2021/01/18 06:00:07;;;;;;;;;;;;;;;;;;5074839;28;19915;-60
2021/01/18 06:02:33;;;;;;;;;;;;;;;;;;5074789;28;20023;-59
2021/01/18 06:04:59;;;;;;;;;;;;;;;;;;5074435;28;20393;-59
2021/01/18 06:07:25;;;;;;;;;;;;;;;;;;5075587;28;19908;-59
2021/01/18 06:09:51;;;;;;;;;;;;;;;;;;5058425;28;19988;-59
2021/01/18 06:12:17;;;;;;;;;;;;;;;;;;5076308;28;19934;-60
2021/01/18 06:14:43;;;;;;;;;;;;;;;;;;5076339;28;19919;-59
2021/01/18 06:17:09;;;;;;;;;;;;;;;;;;5076212;28;19941;-59
2021/01/18 06:19:35;;;;;;;;;;;;;;;;;;5075130;28;20273;-59
2021/01/18 06:22:01;;;;;;;;;;;;;;;;;;5076054;28;19930;-59
2021/01/18 06:24:27;;;;;;;;;;;;;;;;;;5076034;28;19922;-59
2021/01/18 06:26:53;;;;;;;;;;;;;;;;;;5076029;28;20005;-59
2021/01/18 06:29:19;;;;;;;;;;;;;;;;;;5076361;28;20026;-59
2021/01/18 06:31:45;;;;;;;;;;;;;;;;;;5069366;28;20019;-58
2021/01/18 06:34:11;;;;;;;;;;;;;;;;;;5066452;28;19969;-59
2021/01/18 06:36:37;;;;;;;;;;;;;;;;;;5059734;28;20363;-59
2021/01/18 06:39:04;;;;;;;;;;;;;;;;;;5069022;28;19919;-59
2021/01/18 06:41:30;;;;;;;;;;;;;;;;;;5072708;28;19922;-59
2021/01/18 06:43:56;;;;;;;;;;;;;;;;;;5077895;28;19952;-59
2021/01/18 06:46:23;;;;;;;;;;;;;;;;;;5095862;28;19919;-59
2021/01/18 06:48:50;;;;;;;;;;;;;;;;;;5095862;28;19946;-59
2021/01/18 06:51:16;;;;;;;;;;;;;;;;;;5095777;28;19978;-59
2021/01/18 06:53:43;;;;;;;;;;;;;;;;;;5095768;28;19927;-59
2021/01/18 06:56:09;;;;;;;;;;;;;;;;;;5095860;28;19924;-59
2021/01/18 06:58:35;;;;;;;;;;;;;;;;;;5095560;28;20006;-59
2021/01/18 07:01:01;;;;;;;;;;;;;;;;;;5095891;28;19922;-59
2021/01/18 07:03:27;;;;;;;;;;;;;;;;;;5095250;28;19947;-58
2021/01/18 07:05:53;;;;;;;;;;;;;;;;;;5075365;28;19955;-59
2021/01/18 07:08:19;;;;;;;;;;;;;;;;;;5055177;28;19921;-58
2021/01/18 07:10:45;;;;;;;;;;;;;;;;;;5055422;28;19920;-59
2021/01/18 07:13:11;;;;;;;;;;;;;;;;;;5055321;28;19915;-59
2021/01/18 07:15:37;;;;;;;;;;;;;;;;;;5055398;28;20309;-59
2021/01/18 07:18:03;;;;;;;;;;;;;;;;;;5054937;28;19942;-59
2021/01/18 07:20:29;;;;;;;;;;;;;;;;;;5054864;28;20064;-59
2021/01/18 07:22:55;;;;;;;;;;;;;;;;;;5055013;28;19955;-59
2021/01/18 07:25:21;;;;;;;;;;;;;;;;;;5055193;28;19958;-59
2021/01/18 07:27:47;;;;;;;;;;;;;;;;;;5037066;28;20299;-59
2021/01/18 07:30:13;;;;;;;;;;;;;;;;;;5055123;28;19977;-59
2021/01/18 07:32:39;;;;;;;;;;;;;;;;;;5054706;28;20388;-58
2021/01/18 07:35:05;;;;;;;;;;;;;;;;;;5054845;28;19952;-59
2021/01/18 07:37:31;;;;;;;;;;;;;;;;;;5055182;28;19949;-59
2021/01/18 07:39:56;;;;;;;;;;;;;;;;;;5054703;28;19919;-59
2021/01/18 07:42:22;;;;;;;;;;;;;;;;;;5054509;28;20041;-59
2021/01/18 07:44:48;;;;;;;;;;;;;;;;;;5054789;28;19989;-59
2021/01/18 07:47:14;;;;;;;;;;;;;;;;;;5054821;28;20403;-59
2021/01/18 07:49:40;;;;;;;;;;;;;;;;;;5054460;28;20004;-59
2021/01/18 07:52:06;;;;;;;;;;;;;;;;;;5054588;28;19909;-58
2021/01/18 07:54:32;;;;;;;;;;;;;;;;;;5064661;28;19920;-58
2021/01/18 07:56:58;;;;;;;;;;;;;;;;;;5061288;28;19973;-59
2021/01/18 07:59:24;;;;;;;;;;;;;;;;;;5061386;28;20006;-59
2021/01/18 08:01:50;;;;;;;;;;;;;;;;;;5063123;28;20389;-58
2021/01/18 08:04:16;;;;;;;;;;;;;;;;;;5063873;28;19948;-58
2021/01/18 08:06:42;;;;;;;;;;;;;;;;;;5063948;28;19976;-58
2021/01/18 08:09:08;;;;;;;;;;;;;;;;;;5064750;28;19920;-59
2021/01/18 08:11:34;;;;;;;;;;;;;;;;;;5067458;28;19945;-59
2021/01/18 08:14:00;;;;;;;;;;;;;;;;;;5066755;28;19920;-59
2021/01/18 08:16:26;;;;;;;;;;;;;;;;;;5064205;28;20436;-59
2021/01/18 08:18:52;;;;;;;;;;;;;;;;;;5047244;28;19927;-60
2021/01/18 08:21:18;;;;;;;;;;;;;;;;;;5074303;28;19960;-60
2021/01/18 08:23:44;;;;;;;;;;;;;;;;;;5073825;28;19924;-60
2021/01/18 08:26:10;;;;;;;;;;;;;;;;;;5073895;28;19922;-60
2021/01/18 08:28:36;;;;;;;;;;;;;;;;;;5073684;28;20276;-60
2021/01/18 08:31:02;;;;;;;;;;;;;;;;;;5074207;28;19924;-60
2021/01/18 08:33:28;;;;;;;;;;;;;;;;;;5074168;28;20341;-60
2021/01/18 08:35:57;;;;;;;;;;;;;;;;;;5073785;28;19921;-60
2021/01/18 08:38:23;;;;;;;;;;;;;;;;;;5073731;28;19932;-60
2021/01/18 08:40:49;;;;;;;;;;;;;;;;;;5073855;28;19928;-60
2021/01/18 08:43:15;;;;;;;;;;;;;;;;;;5073609;28;20026;-60
2021/01/18 08:45:41;;;;;;;;;;;;;;;;;;5073670;28;19923;-61
2021/01/18 08:48:07;;;;;;;;;;;;;;;;;;5073676;28;20032;-59
2021/01/18 08:50:33;;;;;;;;;;;;;;;;;;5073587;28;19923;-60
2021/01/18 08:52:59;;;;;;;;;;;;;;;;;;5073583;28;19971;-60
2021/01/18 08:55:25;;;;;;;;;;;;;;;;;;5073819;28;20013;-60
2021/01/18 08:57:53;;;;;;;;;;;;;;;;;;5073656;28;20460;-60
2021/01/18 09:00:19;;;;;;;;;;;;;;;;;;5073382;28;19923;-60
2021/01/18 09:02:45;;;;;;;;;;;;;;;;;;5055528;28;19925;-61
2021/01/18 09:05:11;;;;;;;;;;;;;;;;;;5073447;28;20300;-62
2021/01/18 09:07:36;;;;;;;;;;;;;;;;;;5061726;28;19929;-62
2021/01/18 09:10:02;;;;;;;;;;;;;;;;;;5053336;28;20361;-62
2021/01/18 09:12:28;;;;;;;;;;;;;;;;;;5053365;28;19950;-62
2021/01/18 09:14:54;;;;;;;;;;;;;;;;;;5072030;28;19962;-62
2021/01/18 09:17:20;;;;;;;;;;;;;;;;;;5073740;28;20230;-62
2021/01/18 09:19:46;;;;;;;;;;;;;;;;;;5073115;28;19969;-61
2021/01/18 09:22:12;;;;;;;;;;;;;;;;;;5073361;28;19958;-62
2021/01/18 09:24:38;;;;;;;;;;;;;;;;;;5056403;28;19963;-62
2021/01/18 09:27:04;;;;;;;;;;;;;;;;;;5053218;28;19989;-62
2021/01/18 09:29:30;;;;;;;;;;;;;;;;;;5053503;28;19919;-62
2021/01/18 09:31:56;;;;;;;;;;;;;;;;;;5053170;28;20377;-62
2021/01/18 09:34:22;;;;;;;;;;;;;;;;;;5053122;28;20011;-62
2021/01/18 09:36:49;;;;;;;;;;;;;;;;;;5053396;28;19920;-62
2021/01/18 09:39:15;;;;;;;;;;;;;;;;;;5053122;28;20398;-62
2021/01/18 09:41:41;;;;;;;;;;;;;;;;;;5053071;28;20003;-63
2021/01/18 09:44:07;;;;;;;;;;;;;;;;;;5053055;28;19952;-62
2021/01/18 09:46:33;;;;;;;;;;;;;;;;;;5052996;28;19949;-63
2021/01/18 09:48:59;;;;;;;;;;;;;;;;;;5060849;28;19927;-62
2021/01/18 09:51:25;;;;;;;;;;;;;;;;;;5072767;28;20313;-63
2021/01/18 09:53:51;;;;;;;;;;;;;;;;;;5072969;28;19928;-63
2021/01/18 09:56:17;;;;;;;;;;;;;;;;;;5075675;28;19927;-63
2021/01/18 09:58:43;;;;;;;;;;;;;;;;;;5076795;28;20042;-63
2021/01/18 10:01:09;;;;;;;;;;;;;;;;;;5076617;28;19955;-63
2021/01/18 10:03:35;;;;;;;;;;;;;;;;;;5076623;28;19963;-63
2021/01/18 10:06:01;;;;;;;;;;;;;;;;;;5063817;28;19931;-63
2021/01/18 10:08:27;;;;;;;;;;;;;;;;;;5056635;28;20033;-63
2021/01/18 10:10:53;;;;;;;;;;;;;;;;;;5056244;28;20376;-62
2021/01/18 10:13:19;;;;;;;;;;;;;;;;;;5060287;28;19920;-62
2021/01/18 10:15:45;;;;;;;;;;;;;;;;;;5065233;28;19999;-61
2021/01/18 10:18:11;;;;;;;;;;;;;;;;;;5065221;28;19956;-63
2021/01/18 10:20:37;;;;;;;;;;;;;;;;;;5070015;28;20045;-62
2021/01/18 10:23:03;;;;;;;;;;;;;;;;;;5076342;28;19920;-63
2021/01/18 10:25:29;;;;;;;;;;;;;;;;;;5076359;28;19943;-63
2021/01/18 10:27:55;;;;;;;;;;;;;;;;;;5075863;28;19922;-63
2021/01/18 10:30:21;;;;;;;;;;;;;;;;;;5057919;28;20283;-63
2021/01/18 10:32:47;;;;;;;;;;;;;;;;;;5075991;28;20307;-62
2021/01/18 10:35:13;;;;;;;;;;;;;;;;;;5071021;28;19927;-62
2021/01/18 10:37:39;;;;;;;;;;;;;;;;;;5040505;28;19913;-62
2021/01/18 10:40:06;;;;;;;;;;;;;;;;;;5069766;28;19947;-63
2021/01/18 10:42:31;;;;;;;;;;;;;;;;;;5075687;28;19965;-63
2021/01/18 10:44:57;;;;;;;;;;;;;;;;;;5075802;28;20017;-63
2021/01/18 10:47:23;;;;;;;;;;;;;;;;;;5075806;28;19908;-63
2021/01/18 10:49:49;;;;;;;;;;;;;;;;;;5058945;28;19926;-63
2021/01/18 10:52:17;;;;;;;;;;;;;;;;;;5055512;28;19925;-62
2021/01/18 10:54:43;;;;;;;;;;;;;;;;;;5037513;28;20306;-63
2021/01/18 10:57:09;;;;;;;;;;;;;;;;;;5055427;28;19946;-63
2021/01/18 10:59:35;;;;;;;;;;;;;;;;;;5055334;28;19946;-63
2021/01/18 11:02:01;;;;;;;;;;;;;;;;;;5055307;28;19949;-63
2021/01/18 11:04:27;;;;;;;;;;;;;;;;;;5055336;28;19917;-62
2021/01/18 11:06:53;;;;;;;;;;;;;;;;;;5036963;28;19956;-62
2021/01/18 11:09:19;;;;;;;;;;;;;;;;;;5055302;28;19954;-61
2021/01/18 11:11:45;;;;;;;;;;;;;;;;;;5055269;28;19925;-62
2021/01/18 11:14:11;;;;;;;;;;;;;;;;;;5055340;28;19915;-62
2021/01/18 11:16:37;;;;;;;;;;;;;;;;;;5055095;28;20491;-62
2021/01/18 11:19:03;;;;;;;;;;;;;;;;;;5055147;28;19921;-61
2021/01/18 11:21:30;;;;;;;;;;;;;;;;;;5055032;28;19929;-62
2021/01/18 11:23:55;;;;;;;;;;;;;;;;;;5054885;28;20370;-62
2021/01/18 11:26:21;;;;;;;;;;;;;;;;;;5054884;28;19956;-62
2021/01/18 11:28:47;;;;;;;;;;;;;;;;;;5054801;28;20365;-62
2021/01/18 11:31:13;;;;;;;;;;;;;;;;;;5061364;28;19947;-62
2021/01/18 11:33:39;;;;;;;;;;;;;;;;;;5054842;28;19927;-61
2021/01/18 11:36:05;;;;;;;;;;;;;;;;;;5057885;28;19923;-62
2021/01/18 11:38:31;;;;;;;;;;;;;;;;;;5072787;28;19934;-62
2021/01/18 11:40:57;;;;;;;;;;;;;;;;;;5062137;28;20134;-62
2021/01/18 11:43:23;;;;;;;;;;;;;;;;;;5063227;28;19947;-62
2021/01/18 11:45:49;;;;;;;;;;;;;;;;;;5054468;28;19909;-61
2021/01/18 11:48:15;;;;;;;;;;;;;;;;;;5054338;28;20309;-61
2021/01/18 11:50:41;;;;;;;;;;;;;;;;;;5054453;28;19919;-61
2021/01/18 11:53:09;;;;;;;;;;;;;;;;;;5054363;28;19943;-60
2021/01/18 11:55:35;;;;;;;;;;;;;;;;;;5054425;28;19919;-62
2021/01/18 11:58:02;;;;;;;;;;;;;;;;;;5054346;28;19946;-60
2021/01/18 12:00:28;;;;;;;;;;;;;;;;;;5054476;28;19929;-61
2021/01/18 12:02:54;;;;;;;;;;;;;;;;;;5054011;28;20282;-60
2021/01/18 12:05:22;;;;;;;;;;;;;;;;;;5036352;28;19968;-60
2021/01/18 12:07:48;;;;;;;;;;;;;;;;;;5054249;28;20041;-60
2021/01/18 12:10:14;;;;;;;;;;;;;;;;;;5054245;28;19919;-61
2021/01/18 12:12:40;;;;;;;;;;;;;;;;;;5054164;28;19921;-60
2021/01/18 12:15:06;;;;;;;;;;;;;;;;;;5054099;28;20479;-61
2021/01/18 12:17:32;;;;;;;;;;;;;;;;;;5053467;28;19908;-62
2021/01/18 12:19:58;;;;;;;;;;;;;;;;;;5053760;28;20040;-61
2021/01/18 12:22:24;;;;;;;;;;;;;;;;;;5061168;28;20282;-60
2021/01/18 12:24:50;;;;;;;;;;;;;;;;;;5076047;28;20001;-61
2021/01/18 12:27:16;;;;;;;;;;;;;;;;;;5094341;28;19923;-61
2021/01/18 12:29:41;;;;;;;;;;;;;;;;;;5076000;28;20328;-62
2021/01/18 12:32:07;;;;;;;;;;;;;;;;;;5094305;28;19916;-61
2021/01/18 12:34:33;;;;;;;;;;;;;;;;;;5093887;28;20401;-61
2021/01/18 12:36:59;;;;;;;;;;;;;;;;;;5093777;28;19930;-61
2021/01/18 12:39:26;;;;;;;;;;;;;;;;;;5089387;28;19948;-60
2021/01/18 12:41:51;;;;;;;;;;;;;;;;;;5066847;28;19947;-60
2021/01/18 12:44:17;;;;;;;;;;;;;;;;;;5062589;28;19960;-60
2021/01/18 12:46:44;;;;;;;;;;;;;;;;;;5062128;28;20343;-60
2021/01/18 12:49:09;;;;;;;;;;;;;;;;;;5063563;28;19919;-61
2021/01/18 12:51:36;;;;;;;;;;;;;;;;;;5065689;28;19921;-62
2021/01/18 12:54:02;;;;;;;;;;;;;;;;;;5073486;28;19928;-62
2021/01/18 12:56:31;;;;;;;;;;;;;;;;;;5073767;28;19990;-62
2021/01/18 12:58:57;;;;;;;;;;;;;;;;;;5073424;28;20409;-62
2021/01/18 13:01:23;;;;;;;;;;;;;;;;;;5073712;28;19947;-62
2021/01/18 13:03:49;;;;;;;;;;;;;;;;;;5073311;28;20292;-61
2021/01/18 13:06:15;;;;;;;;;;;;;;;;;;5060875;28;20026;-61
2021/01/18 13:08:41;;;;;;;;;;;;;;;;;;5053333;28;19909;-61
2021/01/18 13:11:07;;;;;;;;;;;;;;;;;;5053603;28;19909;-61
2021/01/18 13:13:33;;;;;;;;;;;;;;;;;;5055950;28;19923;-61
2021/01/18 13:15:59;;;;;;;;;;;;;;;;;;5079556;28;20422;-61
2021/01/18 13:18:25;;;;;;;;;;;;;;;;;;5084657;28;19938;-60
2021/01/18 13:20:51;;;;;;;;;;;;;;;;;;5071302;28;19928;-60
2021/01/18 13:23:18;;;;;;;;;;;;;;;;;;5061377;28;19989;-61
2021/01/18 13:25:44;;;;;;;;;;;;;;;;;;5064903;28;19913;-61
2021/01/18 13:28:10;;;;;;;;;;;;;;;;;;5044053;28;20366;-60
2021/01/18 13:30:36;;;;;;;;;;;;;;;;;;5059385;28;19913;-60
2021/01/18 13:33:02;;;;;;;;;;;;;;;;;;5060884;28;19923;-60
2021/01/18 13:35:28;;;;;;;;;;;;;;;;;;5077075;28;20293;-60
2021/01/18 13:37:54;;;;;;;;;;;;;;;;;;5076841;28;20215;-60
2021/01/18 13:40:21;;;;;;;;;;;;;;;;;;5070205;28;19947;-60
2021/01/18 13:42:47;;;;;;;;;;;;;;;;;;5064019;28;20388;-60
2021/01/18 13:45:13;;;;;;;;;;;;;;;;;;5057166;28;19913;-60
2021/01/18 13:47:39;;;;;;;;;;;;;;;;;;5059075;28;20358;-60
2021/01/18 13:50:05;;;;;;;;;;;;;;;;;;5038833;28;19927;-61
2021/01/18 13:52:31;;;;;;;;;;;;;;;;;;5038708;28;19955;-61
2021/01/18 13:54:57;;;;;;;;;;;;;;;;;;5058710;28;20370;-61
2021/01/18 13:57:23;;;;;;;;;;;;;;;;;;5075900;28;19922;-61
2021/01/18 13:59:49;;;;;;;;;;;;;;;;;;5065367;28;20007;-61
2021/01/18 14:02:15;;;;;;;;;;;;;;;;;;5039925;28;20273;-60
2021/01/18 14:04:41;;;;;;;;;;;;;;;;;;5055929;28;19921;-61
2021/01/18 14:07:07;;;;;;;;;;;;;;;;;;5056277;28;19909;-62
2021/01/18 14:09:33;;;;;;;;;;;;;;;;;;5056385;28;19930;-62
2021/01/18 14:11:59;;;;;;;;;;;;;;;;;;5067220;28;19999;-61
2021/01/18 14:14:25;;;;;;;;;;;;;;;;;;5043745;28;19947;-61
2021/01/18 14:16:51;;;;;;;;;;;;;;;;;;5064652;28;20037;-61
2021/01/18 14:19:17;;;;;;;;;;;;;;;;;;5065260;28;20342;-61
2021/01/18 14:21:43;;;;;;;;;;;;;;;;;;5060611;28;19939;-60
2021/01/18 14:24:10;;;;;;;;;;;;;;;;;;5056207;28;20000;-62
2021/01/18 14:26:39;;;;;;;;;;;;;;;;;;5072834;28;20394;-62
2021/01/18 14:29:05;;;;;;;;;;;;;;;;;;5069244;28;20003;-62
2021/01/18 14:31:32;;;;;;;;;;;;;;;;;;5056052;28;20315;-62
2021/01/18 14:33:58;;;;;;;;;;;;;;;;;;5060356;28;19958;-61
2021/01/18 14:36:24;;;;;;;;;;;;;;;;;;5055588;28;19909;-62
2021/01/18 14:38:50;;;;;;;;;;;;;;;;;;5055728;28;19916;-62
2021/01/18 14:41:16;;;;;;;;;;;;;;;;;;5055136;28;19925;-62
2021/01/18 14:43:42;;;;;;;;;;;;;;;;;;5055595;28;20456;-62
2021/01/18 14:46:08;;;;;;;;;;;;;;;;;;5055577;28;19998;-61
2021/01/18 14:48:36;;;;;;;;;;;;;;;;;;5055767;28;19909;-62
2021/01/18 14:51:02;;;;;;;;;;;;;;;;;;5055399;28;19975;-61
2021/01/18 14:53:28;;;;;;;;;;;;;;;;;;5055491;28;19961;-62
2021/01/18 14:55:54;;;;;;;;;;;;;;;;;;5055438;28;19921;-62
2021/01/18 14:58:20;;;;;;;;;;;;;;;;;;5055369;28;19916;-62
2021/01/18 15:00:45;;;;;;;;;;;;;;;;;;5055535;28;19988;-62
2021/01/18 15:03:11;;;;;;;;;;;;;;;;;;5055606;28;19920;-62
2021/01/18 15:05:37;;;;;;;;;;;;;;;;;;5055127;28;20387;-64
2021/01/18 15:08:03;;;;;;;;;;;;;;;;;;5055263;28;19915;-63
2021/01/18 15:10:29;;;;;;;;;;;;;;;;;;5055204;28;19949;-63
2021/01/18 15:12:56;;;;;;;;;;;;;;;;;;5055159;28;20420;-62
2021/01/18 15:15:22;;;;;;;;;;;;;;;;;;5055024;28;20015;-61
2021/01/18 15:17:48;;;;;;;;;;;;;;;;;;5055343;28;20021;-62
2021/01/18 15:20:14;;;;;;;;;;;;;;;;;;5054799;28;20451;-62
2021/01/18 15:22:40;;;;;;;;;;;;;;;;;;5055032;28;19929;-64
2021/01/18 15:25:06;;;;;;;;;;;;;;;;;;5054756;28;20281;-64
2021/01/18 15:27:32;;;;;;;;;;;;;;;;;;5054827;28;19996;-62
2021/01/18 15:29:58;;;;;;;;;;;;;;;;;;5054801;28;19936;-63
2021/01/18 15:32:24;;;;;;;;;;;;;;;;;;5054703;28;19932;-64
2021/01/18 15:34:50;;;;;;;;;;;;;;;;;;5054995;28;19950;-64
2021/01/18 15:37:16;;;;;;;;;;;;;;;;;;5054812;28;20802;-64
2021/01/18 15:39:42;;;;;;;;;;;;;;;;;;5054795;28;19920;-64
2021/01/18 15:42:08;;;;;;;;;;;;;;;;;;5054849;28;19940;-64
2021/01/18 15:44:34;;;;;;;;;;;;;;;;;;5054473;28;20366;-63
2021/01/18 15:47:00;;;;;;;;;;;;;;;;;;5054486;28;19953;-64
2021/01/18 15:49:26;;;;;;;;;;;;;;;;;;5054424;28;20018;-63
2021/01/18 15:51:52;;;;;;;;;;;;;;;;;;5053998;28;19924;-63
2021/01/18 15:54:18;;;;;;;;;;;;;;;;;;5053848;28;19909;-63
2021/01/18 15:56:43;;;;;;;;;;;;;;;;;;5054291;28;19943;-63
2021/01/18 15:59:09;;;;;;;;;;;;;;;;;;5036373;28;19971;-63
2021/01/18 16:01:36;;;;;;;;;;;;;;;;;;5054156;28;19919;-62
2021/01/18 16:04:01;;;;;;;;;;;;;;;;;;5054104;28;19961;-64
2021/01/18 16:06:27;;;;;;;;;;;;;;;;;;5054358;28;19909;-62
2021/01/18 16:08:53;;;;;;;;;;;;;;;;;;5055836;28;19945;-65
2021/01/18 16:11:19;;;;;;;;;;;;;;;;;;5065407;28;20440;-63
2021/01/18 16:13:45;;;;;;;;;;;;;;;;;;5067531;28;19912;-63
2021/01/18 16:16:11;;;;;;;;;;;;;;;;;;5069923;28;19954;-63
2021/01/18 16:18:37;;;;;;;;;;;;;;;;;;5061636;28;20433;-63
2021/01/18 16:21:03;;;;;;;;;;;;;;;;;;5058092;28;19957;-63
2021/01/18 16:23:29;;;;;;;;;;;;;;;;;;5053705;28;19999;-63
2021/01/18 16:25:55;;;;;;;;;;;;;;;;;;5053877;28;19909;-63
2021/01/18 16:28:21;;;;;;;;;;;;;;;;;;5053882;28;19928;-63
2021/01/18 16:30:47;;;;;;;;;;;;;;;;;;5053822;28;19909;-63
2021/01/18 16:33:13;;;;;;;;;;;;;;;;;;5053744;28;19956;-64
2021/01/18 16:35:39;;;;;;;;;;;;;;;;;;5053808;28;19974;-64